Troicko-Pecherskoe, Russia
Current Conditions -  °F | °C
As of 4:00 AM on Monday 24 Nov 2014 (Local Time) from UUYY Reporting Station
Clear Clear  
Wind Chill: -13°   Ceiling: Unl
Heat Index:   Visibility: 6mi
Dew Point: -6°   Wind: 7mph
Humidity: 78%   Direction: 210°SSW
Pressure: 30.62"   Gusts: NA
Location:  62.7°N, 56.2°E
Report Text: UUYY 240100Z 21003MPS CAVOK M18/M21 Q1037 NOSIG 1981//51 RMK QFE769/1025
Loading
Personal Weather Stations






























Interactive Weather Map New forecast layout! Learn more

10-Day Weather Forecast

Advertisements
Track Severe Weather on mobile